Time;durP1;ratioP1;P1;durP2;ratioP2;P2;SDS_P1;SDS_P2;PMS_P1;PMS_P2;Temp;Humidity;BMP_temperature;BMP_pressure;BME280_temperature;BME280_humidity;BME280_pressure;Samples;Min_cycle;Max_cycle;Signal;HPM_P1;HPM_P2
2023/01/17 00:01:51;;;;;;;9.40;1.50;;;3.90;99.90;;;;;;5052209;28;20124;-68
2023/01/17 00:09:52;;;;;;;11.70;1.67;;;4.00;99.90;;;;;;5052140;28;20413;-70
2023/01/17 00:12:19;;;;;;;12.68;2.17;;;3.70;99.90;;;;;;5052040;28;20079;-68
2023/01/17 00:14:46;;;;;;;15.07;1.77;;;3.50;99.90;;;;;;5052044;28;20397;-68
2023/01/17 00:17:11;;;;;;;;;;;3.40;99.90;;;;;;5052441;28;20052;-67
2023/01/17 01:34:33;;;;;;;5.63;1.10;;;3.50;99.90;;;;;;5054899;28;20059;-69
2023/01/17 01:36:59;;;;;;;6.68;1.35;;;3.80;99.90;;;;;;5054812;28;20044;-72
2023/01/17 01:39:25;;;;;;;8.95;1.63;;;;;;;;;;5054640;28;20228;-69
2023/01/17 01:41:51;;;;;;;11.10;1.40;;;3.60;99.90;;;;;;5054653;28;20041;-68
2023/01/17 01:44:49;;;;;;;14.32;1.55;;;3.80;99.90;;;;;;5054577;28;20473;-69
2023/01/17 01:47:31;;;;;;;7.57;1.88;;;4.20;99.90;;;;;;5053971;28;20500;-68
2023/01/17 01:50:00;;;;;;;10.27;2.22;;;3.80;99.90;;;;;;5054470;28;20500;-67
2023/01/17 01:52:28;;;;;;;10.13;1.33;;;4.10;99.90;;;;;;5054408;28;20430;-69
2023/01/17 01:55:05;;;;;;;11.52;1.50;;;4.00;99.90;;;;;;5054109;28;20104;-68
2023/01/17 01:57:33;;;;;;;8.45;1.70;;;;;;;;;;5054341;28;20145;-69
2023/01/17 02:00:04;;;;;;;9.13;1.42;;;4.20;99.90;;;;;;5053788;28;20135;-68
2023/01/17 02:02:30;;;;;;;16.13;1.55;;;;;;;;;;5054055;28;20048;-67
2023/01/17 02:04:57;;;;;;;;;;;4.20;99.90;;;;;;5054656;28;20049;-69
2023/01/17 02:07:34;;;;;;;8.43;1.52;;;;;;;;;;5054098;28;19928;-68
2023/01/17 02:10:02;;;;;;;11.65;1.23;;;4.40;99.90;;;;;;5054208;28;20054;-68
2023/01/17 02:12:28;;;;;;;7.88;1.30;;;;;;;;;;5053843;28;20508;-68
2023/01/17 02:14:54;;;;;;;10.48;1.40;;;4.40;99.90;;;;;;5054109;28;20122;-69
2023/01/17 02:17:50;;;;;;;10.43;1.40;;;4.50;99.90;;;;;;5053401;28;20084;-67
2023/01/17 02:20:53;;;;;;;5.80;1.30;;;4.60;99.90;;;;;;5053977;28;20052;-68
2023/01/17 02:23:25;;;;;;;4.25;1.17;;;4.40;99.90;;;;;;5053885;28;20128;-69
2023/01/17 02:26:03;;;;;;;10.32;1.30;;;4.10;99.90;;;;;;5053812;28;20088;-69
2023/01/17 02:28:57;;;;;;;12.05;1.80;;;4.80;99.90;;;;;;5053337;28;20563;-70
2023/01/17 02:31:45;;;;;;;11.57;1.63;;;4.60;99.90;;;;;;5053231;28;20455;-69
2023/01/17 02:34:39;;;;;;;4.60;0.98;;;4.60;99.90;;;;;;5050027;28;20520;-68
2023/01/17 02:37:25;;;;;;;13.40;2.17;;;4.80;99.90;;;;;;5053659;28;20041;-70
2023/01/17 02:40:12;;;;;;;9.02;1.20;;;;;;;;;;5053593;28;20095;-68
2023/01/17 02:42:43;;;;;;;5.63;1.42;;;4.70;99.90;;;;;;5053574;28;20102;-71
2023/01/17 02:45:17;;;;;;;10.48;1.50;;;4.50;99.90;;;;;;5052308;28;20108;-69
2023/01/17 02:47:43;;;;;;;12.73;1.90;;;;;;;;;;5053643;28;20477;-69
2023/01/17 02:50:18;;;;;;;6.78;1.48;;;4.70;99.90;;;;;;5053466;28;20136;-69
2023/01/17 02:52:58;;;;;;;5.75;1.23;;;4.80;99.90;;;;;;5053442;28;20049;-70
2023/01/17 02:55:24;;;;;;;6.63;1.52;;;;;;;;;;5053407;28;20105;-69
2023/01/17 02:58:23;;;;;;;6.85;1.25;;;5.00;99.90;;;;;;5053286;28;20136;-69
2023/01/17 03:01:10;;;;;;;7.55;1.20;;;5.10;99.90;;;;;;5052929;28;20136;-68
2023/01/17 03:03:45;;;;;;;7.20;1.30;;;5.00;99.90;;;;;;5053164;28;20049;-68
2023/01/17 03:06:31;;;;;;;9.88;1.85;;;5.00;99.90;;;;;;5053523;28;20063;-69
2023/01/17 03:08:56;;;;;;;14.48;1.90;;;4.90;99.90;;;;;;5053205;28;20059;-69
2023/01/17 03:11:22;;;;;;;15.15;2.35;;;4.80;99.90;;;;;;5052092;28;20132;-68
2023/01/17 03:13:53;;;;;;;10.50;1.42;;;4.80;99.90;;;;;;5052705;28;20102;-69
2023/01/17 03:16:21;;;;;;;11.55;2.03;;;5.00;99.90;;;;;;5052924;28;20080;-69
2023/01/17 03:18:48;;;;;;;15.95;1.58;;;4.80;99.90;;;;;;5052553;28;20561;-69
2023/01/17 03:21:14;;;;;;;4.38;1.05;;;5.20;99.90;;;;;;5052841;28;20118;-68
2023/01/17 03:23:40;;;;;;;5.95;1.20;;;4.80;99.90;;;;;;5052810;28;20099;-71
2023/01/17 03:26:05;;;;;;;8.23;1.50;;;4.70;99.90;;;;;;5052457;28;20056;-70
2023/01/17 03:28:31;;;;;;;10.73;1.40;;;4.70;99.90;;;;;;5050673;28;20061;-69
2023/01/17 03:30:57;;;;;;;3.88;0.98;;;4.70;99.90;;;;;;5052645;28;20053;-68
2023/01/17 03:33:23;;;;;;;10.95;1.58;;;;;;;;;;5051600;28;20124;-67
2023/01/17 03:35:49;;;;;;;4.25;1.42;;;4.60;99.90;;;;;;5052511;28;20131;-67
2023/01/17 03:38:16;;;;;;;12.48;1.88;;;4.70;99.90;;;;;;5052512;28;20087;-68
2023/01/17 03:40:41;;;;;;;;;;;4.70;99.90;;;;;;5052876;28;20048;-68
2023/01/17 03:43:07;;;;;;;5.50;1.42;;;4.50;99.90;;;;;;5052128;28;19921;-68
2023/01/17 03:45:33;;;;;;;6.00;1.40;;;4.50;99.90;;;;;;5052409;28;20477;-67
2023/01/17 03:47:59;;;;;;;7.07;1.55;;;4.50;99.90;;;;;;5052222;28;20045;-68
2023/01/17 03:50:25;;;;;;;5.55;1.15;;;4.80;99.90;;;;;;5052261;28;20045;-68
2023/01/17 03:52:51;;;;;;;5.15;0.95;;;4.50;99.90;;;;;;5052255;28;20052;-68
2023/01/17 03:55:17;;;;;;;8.20;1.30;;;;;;;;;;5052211;28;20599;-68
2023/01/17 03:57:43;;;;;;;;;;;4.50;99.90;;;;;;5052286;28;20404;-68
2023/01/17 04:00:10;;;;;;;4.70;1.30;;;4.40;99.90;;;;;;5052166;28;20010;-68
2023/01/17 04:02:35;;;;;;;5.65;1.08;;;4.40;99.90;;;;;;5052013;28;20055;-71
2023/01/17 04:05:01;;;;;;;4.55;1.08;;;4.40;99.90;;;;;;5052036;28;20389;-68
2023/01/17 04:07:27;;;;;;;7.95;1.42;;;;;;;;;;5051556;28;20064;-69
2023/01/17 04:09:53;;;;;;;2.78;0.90;;;;;;;;;;5050971;28;20052;-69
2023/01/17 04:12:19;;;;;;;3.15;0.80;;;4.40;99.90;;;;;;5051702;28;20412;-67
2023/01/17 04:14:45;;;;;;;7.88;1.17;;;4.50;99.90;;;;;;5050809;28;20041;-69
2023/01/17 04:17:17;;;;;;;6.80;0.93;;;4.40;99.90;;;;;;5051624;28;20114;-69
2023/01/17 04:19:43;;;;;;;4.93;1.10;;;4.40;99.90;;;;;;5051836;28;20045;-68
2023/01/17 04:22:08;;;;;;;6.80;1.08;;;4.40;99.90;;;;;;5051691;28;20135;-69
2023/01/17 04:24:34;;;;;;;3.20;1.05;;;;;;;;;;5051790;28;20061;-69
2023/01/17 04:27:00;;;;;;;5.30;0.80;;;4.40;99.90;;;;;;5050908;28;20521;-72
2023/01/17 04:29:26;;;;;;;8.20;1.50;;;4.20;99.90;;;;;;5051703;28;20049;-68
2023/01/17 04:31:52;;;;;;;7.07;1.10;;;4.40;99.90;;;;;;5051807;28;20045;-70
2023/01/17 04:34:17;;;;;;;5.63;1.08;;;4.20;99.90;;;;;;5051708;28;20159;-70
2023/01/17 04:36:43;;;;;;;5.28;1.10;;;;;;;;;;5051935;28;20045;-68
2023/01/17 04:39:09;;;;;;;5.00;1.35;;;4.40;99.90;;;;;;5051707;28;20045;-69
2023/01/17 04:41:35;;;;;;;7.30;1.85;;;4.30;99.90;;;;;;5051405;28;20045;-70
2023/01/17 04:44:01;;;;;;;6.45;1.20;;;4.20;99.90;;;;;;5051585;28;20072;-71
2023/01/17 04:46:27;;;;;;;7.32;1.35;;;;;;;;;;5051632;28;20136;-70
2023/01/17 04:48:52;;;;;;;4.75;1.08;;;4.30;99.90;;;;;;5051554;28;20045;-68
2023/01/17 04:51:18;;;;;;;5.63;1.20;;;4.20;99.90;;;;;;5051623;28;20546;-69
2023/01/17 04:53:44;;;;;;;3.25;1.05;;;4.20;99.90;;;;;;5051505;28;20088;-69
2023/01/17 04:56:09;;;;;;;6.28;0.95;;;4.00;99.90;;;;;;5051298;28;20091;-69
2023/01/17 04:58:35;;;;;;;5.15;1.10;;;3.90;99.90;;;;;;5051507;28;20071;-69
2023/01/17 05:01:05;;;;;;;5.38;1.15;;;;;;;;;;5051595;28;20067;-72
2023/01/17 05:03:32;;;;;;;6.47;1.05;;;3.70;99.90;;;;;;5051694;28;20053;-73
2023/01/17 05:05:58;;;;;;;7.63;1.50;;;;;;;;;;5051682;28;20060;-71
2023/01/17 05:08:24;;;;;;;6.97;1.10;;;3.50;99.90;;;;;;5051477;28;20045;-69
2023/01/17 05:10:50;;;;;;;6.30;1.13;;;3.70;99.90;;;;;;5051161;28;20110;-69
2023/01/17 05:13:16;;;;;;;12.18;2.53;;;;;;;;;;5051303;28;20536;-69
2023/01/17 05:15:43;;;;;;;4.78;1.10;;;3.70;99.90;;;;;;5051071;28;20513;-71
2023/01/17 05:18:13;;;;;;;2.90;0.85;;;3.80;99.90;;;;;;5051368;28;20066;-72
2023/01/17 05:20:39;;;;;;;5.15;1.35;;;3.70;99.90;;;;;;5051210;28;20123;-70
2023/01/17 05:23:05;;;;;;;10.75;1.77;;;4.00;99.90;;;;;;5051276;28;20123;-69
2023/01/17 05:25:31;;;;;;;6.82;1.73;;;;;;;;;;5051019;28;20060;-68
2023/01/17 05:27:58;;;;;;;7.85;1.27;;;;;;;;;;5050985;28;20401;-70
2023/01/17 05:30:25;;;;;;;2.13;0.68;;;3.90;99.90;;;;;;5051183;28;20049;-69
2023/01/17 05:32:52;;;;;;;6.85;1.10;;;3.80;99.90;;;;;;5051238;28;20049;-70
2023/01/17 05:35:20;;;;;;;5.07;1.25;;;3.80;99.90;;;;;;5052792;28;20053;-71
2023/01/17 05:37:47;;;;;;;4.28;1.35;;;;;;;;;;5054761;28;20456;-70
2023/01/17 05:40:25;;;;;;;6.10;1.00;;;3.70;99.90;;;;;;5054133;28;20562;-71
2023/01/17 05:42:52;;;;;;;7.97;1.23;;;3.60;99.90;;;;;;5054474;28;20551;-69
2023/01/17 05:45:20;;;;;;;5.72;1.05;;;3.60;99.90;;;;;;5054666;28;20123;-73
2023/01/17 05:47:48;;;;;;;4.13;0.93;;;3.60;99.90;;;;;;5054473;28;20091;-69
2023/01/17 05:50:15;;;;;;;5.97;1.00;;;;;;;;;;5054594;28;20045;-72
2023/01/17 05:52:52;;;;;;;4.50;1.27;;;;;;;;;;5054279;28;20131;-72
2023/01/17 05:55:18;;;;;;;5.72;1.10;;;3.40;99.90;;;;;;5054434;28;20133;-69
2023/01/17 05:57:44;;;;;;;2.53;0.90;;;;;;;;;;5054393;28;20464;-70
2023/01/17 06:00:11;;;;;;;2.38;0.85;;;3.60;99.90;;;;;;5054334;28;20122;-69
2023/01/17 06:02:37;;;;;;;8.00;1.13;;;;;;;;;;5054290;28;20045;-72
2023/01/17 06:05:03;;;;;;;4.93;1.27;;;3.50;99.90;;;;;;5054260;28;20099;-69
2023/01/17 06:07:29;;;;;;;10.13;1.00;;;;;;;;;;5053829;28;20189;-70
2023/01/17 06:09:55;;;;;;;9.85;1.00;;;3.50;99.90;;;;;;5054212;28;20067;-71
2023/01/17 06:12:21;;;;;;;4.53;0.90;;;;;;;;;;5069555;28;20128;-71
2023/01/17 06:14:47;;;;;;;6.10;1.00;;;;;;;;;;5054098;28;20053;-71
2023/01/17 06:17:12;;;;;;;3.97;1.13;;;3.40;99.90;;;;;;5054018;28;20044;-71
2023/01/17 06:19:38;;;;;;;6.15;1.15;;;;;;;;;;5054062;28;20117;-71
2023/01/17 06:22:05;;;;;;;11.25;1.25;;;;;;;;;;5051347;28;20400;-76
2023/01/17 06:24:30;;;;;;;5.65;1.10;;;2.90;99.90;;;;;;5056193;28;20128;-71
2023/01/17 06:26:57;;;;;;;3.58;0.93;;;;;;;;;;5057621;28;20247;-71
2023/01/17 06:29:23;;;;;;;12.40;1.42;;;;;;;;;;5072833;28;20053;-76
2023/01/17 06:31:49;;;;;;;11.75;1.33;;;;;;;;;;5071329;28;20044;-68
2023/01/17 06:34:15;;;;;;;6.00;1.10;;;3.40;99.90;;;;;;5071636;28;20083;-68
2023/01/17 06:36:40;;;;;;;4.53;0.90;;;3.30;99.90;;;;;;5054885;28;20056;-69
2023/01/17 06:39:07;;;;;;;8.20;1.13;;;;;;;;;;5072495;28;20052;-72
2023/01/17 06:41:33;;;;;;;1.85;0.77;;;;;;;;;;5071711;28;20048;-69
2023/01/17 06:43:58;;;;;;;0.50;0.40;;;3.30;99.90;;;;;;5073344;28;20044;-70
2023/01/17 06:46:24;;;;;;;0.28;0.25;;;;;;;;;;5072746;28;20105;-72
2023/01/17 06:48:51;;;;;;;0.30;0.30;;;;;;;;;;5073010;28;20124;-68
2023/01/17 06:51:17;;;;;;;;;;;;;;;;;;5073353;28;20433;-68
2023/01/17 06:53:42;;;;;;;7.78;1.85;;;3.20;99.90;;;;;;5072286;28;19924;-71
2023/01/17 06:56:09;;;;;;;1.83;0.73;;;;;;;;;;5073128;28;20507;-71
2023/01/17 06:58:35;;;;;;;7.65;1.00;;;3.40;99.90;;;;;;5073230;28;20041;-69
2023/01/17 07:01:08;;;;;;;2.63;0.80;;;3.00;99.90;;;;;;5072572;28;20128;-68
2023/01/17 07:03:34;;;;;;;4.75;0.70;;;;;;;;;;5072881;28;20048;-71
2023/01/17 07:06:01;;;;;;;5.65;0.98;;;;;;;;;;5072686;28;20055;-71
2023/01/17 07:08:27;;;;;;;2.67;0.70;;;3.20;99.90;;;;;;5071944;28;20483;-71
2023/01/17 07:10:57;;;;;;;2.78;1.15;;;;;;;;;;5070003;28;20091;-73
2023/01/17 07:13:23;;;;;;;2.80;0.82;;;3.10;99.90;;;;;;5069434;28;20055;-70
2023/01/17 07:15:49;;;;;;;3.22;1.10;;;;;;;;;;5070561;28;20127;-70
2023/01/17 07:18:19;;;;;;;6.28;1.05;;;3.20;99.90;;;;;;5071039;28;20055;-69
2023/01/17 07:20:45;;;;;;;4.78;1.10;;;3.10;99.90;;;;;;5072248;28;20040;-72
2023/01/17 07:23:11;;;;;;;1.75;0.47;;;3.00;99.90;;;;;;5058827;28;20037;-67
2023/01/17 07:25:37;;;;;;;1.60;0.57;;;;;;;;;;5069052;28;20500;-70
2023/01/17 07:28:03;;;;;;;2.80;0.60;;;;;;;;;;5071627;28;20067;-72
2023/01/17 07:30:29;;;;;;;0.50;0.45;;;;;;;;;;5071753;28;20052;-73
2023/01/17 07:32:56;;;;;;;3.90;0.50;;;;;;;;;;5071998;28;20056;-70
2023/01/17 07:35:25;;;;;;;0.60;0.40;;;;;;;;;;5071349;28;20052;-72
2023/01/17 07:37:51;;;;;;;0.70;0.40;;;2.50;99.90;;;;;;5071235;28;20050;-72
2023/01/17 07:40:17;;;;;;;;;;;2.60;99.90;;;;;;5071546;28;20051;-72
2023/01/17 07:42:44;;;;;;;1.45;0.50;;;;;;;;;;5072167;28;20283;-72
2023/01/17 07:45:11;;;;;;;2.67;1.00;;;2.60;99.90;;;;;;5070523;28;20396;-71
2023/01/17 07:47:37;;;;;;;3.47;0.63;;;;;;;;;;5070753;28;20370;-71
2023/01/17 07:50:04;;;;;;;2.25;0.77;;;;;;;;;;5071875;28;20056;-70
2023/01/17 07:52:30;;;;;;;3.17;0.80;;;;;;;;;;5069730;28;20398;-72
2023/01/17 07:54:56;;;;;;;4.85;0.60;;;;;;;;;;5071919;28;20060;-74
2023/01/17 07:57:22;;;;;;;0.77;0.50;;;2.60;99.90;;;;;;5070472;28;20056;-72
2023/01/17 07:59:49;;;;;;;2.90;0.70;;;2.20;99.90;;;;;;5071430;28;20051;-71
2023/01/17 08:02:21;;;;;;;2.90;1.02;;;2.40;99.90;;;;;;5059081;28;20440;-72
2023/01/17 08:04:47;;;;;;;3.00;0.90;;;2.40;99.90;;;;;;5051983;28;20044;-71
2023/01/17 08:07:14;;;;;;;3.00;0.90;;;;;;;;;;5058225;28;20056;-73
2023/01/17 08:09:41;;;;;;;4.35;0.80;;;;;;;;;;5071216;28;20131;-72
2023/01/17 08:12:07;;;;;;;4.70;1.15;;;;;;;;;;5071676;28;20049;-73
2023/01/17 08:14:33;;;;;;;4.65;1.00;;;;;;;;;;5071439;28;20501;-72
2023/01/17 08:17:12;;;;;;;7.75;1.80;;;;;;;;;;5069669;28;20052;-72
2023/01/17 08:19:38;;;;;;;3.35;1.00;;;2.30;99.90;;;;;;5071310;28;20048;-72
2023/01/17 08:22:04;;;;;;;9.02;1.13;;;;;;;;;;5070648;28;20054;-71
2023/01/17 08:24:30;;;;;;;4.18;1.17;;;2.70;99.90;;;;;;5071133;28;20044;-72
2023/01/17 08:26:56;;;;;;;7.97;0.88;;;2.70;99.90;;;;;;5071242;28;20404;-71
2023/01/17 08:29:22;;;;;;;8.85;1.40;;;3.30;99.90;;;;;;5055704;28;20060;-71
2023/01/17 08:31:49;;;;;;;3.33;0.82;;;3.40;99.90;;;;;;5052214;28;20045;-71
2023/01/17 08:34:15;;;;;;;3.00;0.80;;;3.50;99.90;;;;;;5071278;28;20063;-70
2023/01/17 08:36:44;;;;;;;2.30;0.70;;;3.60;99.90;;;;;;5071492;28;20401;-71
2023/01/17 08:39:13;;;;;;;3.53;0.90;;;3.30;99.90;;;;;;5071144;28;20043;-70
2023/01/17 08:41:39;;;;;;;8.15;1.20;;;;;;;;;;5071391;28;20135;-72
2023/01/17 08:44:05;;;;;;;5.30;1.45;;;3.30;99.90;;;;;;5071373;28;20045;-71
2023/01/17 08:46:31;;;;;;;1.95;0.60;;;;;;;;;;5070370;28;20048;-78
2023/01/17 08:48:58;;;;;;;3.00;0.90;;;;;;;;;;5069996;28;20049;-71
2023/01/17 08:51:26;;;;;;;8.40;1.23;;;3.10;99.90;;;;;;5071676;28;20048;-71
2023/01/17 08:53:52;;;;;;;7.65;1.38;;;;;;;;;;5070988;28;20048;-71
2023/01/17 08:56:18;;;;;;;;;;;3.10;99.90;;;;;;5071861;28;20044;-71
2023/01/17 08:58:44;;;;;;;2.72;0.77;;;3.30;99.90;;;;;;5071303;28;19931;-73
2023/01/17 09:01:09;;;;;;;2.72;0.70;;;3.10;99.90;;;;;;5069588;28;20146;-72
2023/01/17 09:03:35;;;;;;;4.55;0.95;;;3.00;99.90;;;;;;5070924;28;20396;-73
2023/01/17 09:06:10;;;;;;;2.75;1.17;;;3.00;99.90;;;;;;5071231;28;20048;-72
2023/01/17 09:08:36;;;;;;;9.40;1.08;;;;;;;;;;5070640;28;20040;-72
2023/01/17 09:11:06;;;;;;;;;;;3.90;99.90;;;;;;5071255;28;20502;-72
2023/01/17 09:13:32;;;;;;;7.97;1.40;;;3.30;99.90;;;;;;5074031;28;19933;-72
2023/01/17 09:15:58;;;;;;;5.55;1.23;;;3.30;99.90;;;;;;5073839;28;20050;-69
2023/01/17 09:18:25;;;;;;;3.40;0.95;;;3.70;99.90;;;;;;5074912;28;20052;-72
2023/01/17 09:20:53;;;;;;;0.95;0.65;;;3.70;99.90;;;;;;5074832;28;20044;-70
2023/01/17 09:23:21;;;;;;;1.45;0.40;;;;;;;;;;5075047;28;20075;-69
2023/01/17 09:25:54;;;;;;;1.38;0.70;;;;;;;;;;5074921;28;20155;-69
2023/01/17 09:28:20;;;;;;;0.47;0.40;;;;;;;;;;5074387;28;20052;-69
2023/01/17 09:30:46;;;;;;;;;;;2.90;99.90;;;;;;5075048;28;20059;-73
2023/01/17 09:33:12;;;;;;;0.70;0.50;;;;;;;;;;5074582;28;19921;-73
2023/01/17 09:35:38;;;;;;;1.52;0.40;;;2.40;99.90;;;;;;5074734;28;20053;-73
2023/01/17 09:38:04;;;;;;;2.45;0.50;;;;;;;;;;5073738;28;20055;-71
2023/01/17 09:40:30;;;;;;;0.55;0.40;;;;;;;;;;5074675;28;20136;-73
2023/01/17 09:43:04;;;;;;;0.98;0.50;;;2.40;99.90;;;;;;5074686;28;20052;-72
2023/01/17 09:45:32;;;;;;;0.30;0.30;;;2.60;99.90;;;;;;5074416;28;20053;-73
2023/01/17 09:48:00;;;;;;;0.85;0.32;;;2.40;99.90;;;;;;5074536;28;20102;-74
2023/01/17 09:50:34;;;;;;;0.40;0.40;;;;;;;;;;5074578;28;20045;-73
2023/01/17 09:53:05;;;;;;;0.77;0.40;;;2.50;99.90;;;;;;5073455;28;20432;-74
2023/01/17 09:55:40;;;;;;;1.92;0.60;;;2.50;99.90;;;;;;5074512;28;20124;-75
2023/01/17 09:58:10;;;;;;;3.03;0.52;;;;;;;;;;5074443;28;20044;-75
2023/01/17 10:01:17;;;;;;;0.40;0.40;;;2.90;99.90;;;;;;5074098;28;20048;-73
2023/01/17 10:04:00;;;;;;;1.67;0.70;;;2.60;99.90;;;;;;5073768;28;20060;-75
2023/01/17 10:06:51;;;;;;;0.80;0.50;;;2.30;99.90;;;;;;5074298;28;20048;-73
2023/01/17 10:09:23;;;;;;;0.63;0.52;;;2.20;99.90;;;;;;5074218;28;20123;-74
2023/01/17 10:11:55;;;;;;;1.70;0.70;;;;;;;;;;5074200;28;20087;-74
2023/01/17 10:14:54;;;;;;;2.88;0.50;;;1.90;99.90;;;;;;5073819;28;20186;-74
2023/01/17 10:17:26;;;;;;;5.53;0.75;;;;;;;;;;5052373;28;20547;-75
2023/01/17 10:20:36;;;;;;;1.98;0.70;;;2.20;99.90;;;;;;5073964;28;20052;-74
2023/01/17 10:23:21;;;;;;;4.28;0.90;;;;;;;;;;5031290;28;20181;-73
2023/01/17 10:26:14;;;;;;;1.92;0.80;;;;;;;;;;5071645;28;20057;-71
2023/01/17 10:28:45;;;;;;;2.63;0.80;;;2.00;99.90;;;;;;5068894;28;20078;-71
2023/01/17 10:31:23;;;;;;;9.68;1.38;;;2.30;99.90;;;;;;5073632;28;20489;-72
2023/01/17 10:34:05;;;;;;;4.57;0.88;;;2.10;99.90;;;;;;5073763;28;20080;-71
2023/01/17 10:36:42;;;;;;;1.75;0.70;;;2.30;99.90;;;;;;5073769;28;20048;-72
2023/01/17 10:39:24;;;;;;;3.53;1.17;;;2.30;99.90;;;;;;5073753;28;20144;-71
2023/01/17 10:42:15;;;;;;;5.32;0.98;;;2.30;99.90;;;;;;5072648;28;20051;-71
2023/01/17 10:44:50;;;;;;;4.80;0.80;;;;;;;;;;5073395;28;20045;-72
2023/01/17 10:47:23;;;;;;;3.65;0.85;;;;;;;;;;5073730;28;20102;-72
2023/01/17 10:49:51;;;;;;;1.23;0.70;;;;;;;;;;5073784;28;20053;-71
2023/01/17 10:52:36;;;;;;;2.85;0.60;;;2.60;99.90;;;;;;5073517;28;20048;-72
2023/01/17 10:55:09;;;;;;;3.63;0.70;;;;;;;;;;5072383;28;20052;-72
2023/01/17 10:57:42;;;;;;;0.88;0.60;;;;;;;;;;5073105;28;20190;-72
2023/01/17 11:00:31;;;;;;;8.43;1.33;;;;;;;;;;5073244;28;20040;-72
2023/01/17 11:02:58;;;;;;;2.15;0.65;;;3.00;99.90;;;;;;5073331;28;20402;-73
2023/01/17 11:05:27;;;;;;;5.40;1.00;;;;;;;;;;5073132;28;20044;-72
2023/01/17 11:08:05;;;;;;;4.38;0.90;;;3.30;99.90;;;;;;5073024;28;20071;-73
2023/01/17 11:10:35;;;;;;;3.90;1.10;;;3.40;99.90;;;;;;5073149;28;20053;-72
2023/01/17 11:13:03;;;;;;;2.50;0.80;;;;;;;;;;5071652;28;20052;-74
2023/01/17 11:15:31;;;;;;;8.50;0.98;;;;;;;;;;5072939;28;20385;-74
2023/01/17 11:18:05;;;;;;;4.25;0.93;;;;;;;;;;5072924;28;20194;-72
2023/01/17 11:20:37;;;;;;;3.08;1.08;;;3.80;99.90;;;;;;5071709;28;20508;-73
2023/01/17 11:23:20;;;;;;;3.33;1.00;;;3.70;99.90;;;;;;5071745;28;20053;-73
2023/01/17 11:25:59;;;;;;;5.43;1.00;;;3.90;99.90;;;;;;5072454;28;20461;-74
2023/01/17 11:28:29;;;;;;;2.38;0.75;;;4.20;99.90;;;;;;5072410;28;20095;-73
2023/01/17 11:31:06;;;;;;;1.95;0.85;;;3.60;99.90;;;;;;5072626;28;20061;-73
2023/01/17 11:34:13;;;;;;;4.97;0.80;;;4.20;99.90;;;;;;5070693;28;20084;-73
2023/01/17 11:36:32;;;;;;;6.88;0.93;;;4.00;99.90;;;;;;5069323;28;20059;-73
2023/01/17 11:39:04;;;;;;;2.85;0.95;;;4.10;99.90;;;;;;5072524;28;20049;-73
2023/01/17 11:41:40;;;;;;;4.60;1.25;;;4.40;99.90;;;;;;5071090;28;20055;-73
2023/01/17 11:44:22;;;;;;;4.25;1.10;;;4.50;99.90;;;;;;5071391;28;20060;-74
2023/01/17 11:47:06;;;;;;;4.65;1.10;;;4.80;99.90;;;;;;5072451;28;20045;-74
2023/01/17 11:49:32;;;;;;;4.75;1.08;;;5.00;99.90;;;;;;5072398;28;20044;-74
2023/01/17 11:51:58;;;;;;;5.10;1.17;;;5.10;99.90;;;;;;5071072;28;20135;-73
2023/01/17 11:54:27;;;;;;;6.75;1.20;;;5.20;99.90;;;;;;5071294;28;20132;-74
2023/01/17 11:56:58;;;;;;;3.20;1.05;;;5.00;99.90;;;;;;5070904;28;20098;-73
2023/01/17 11:59:41;;;;;;;5.38;1.30;;;5.10;99.90;;;;;;5071178;28;20493;-75
2023/01/17 12:02:30;;;;;;;2.20;1.10;;;5.30;99.90;;;;;;5072216;28;20056;-73
2023/01/17 12:05:33;;;;;;;5.07;1.08;;;5.00;99.90;;;;;;5072164;28;20066;-75
2023/01/17 12:07:59;;;;;;;7.22;1.70;;;4.60;99.90;;;;;;5072018;28;20114;-73
2023/01/17 12:10:51;;;;;;;5.68;1.35;;;4.50;99.90;;;;;;5071820;28;20447;-74
2023/01/17 12:14:00;;;;;;;4.05;1.10;;;4.80;99.90;;;;;;5034575;28;20052;-73
2023/01/17 12:16:32;;;;;;;2.75;1.00;;;4.50;99.90;;;;;;5052028;28;20059;-76
2023/01/17 12:19:17;;;;;;;4.22;1.02;;;4.80;99.90;;;;;;5051878;28;20095;-74
2023/01/17 12:21:54;;;;;;;4.45;1.02;;;4.60;99.90;;;;;;5051890;28;20051;-73
2023/01/17 12:24:41;;;;;;;5.68;1.27;;;4.70;99.90;;;;;;5050650;28;20053;-72
2023/01/17 12:27:30;;;;;;;6.03;1.30;;;4.90;99.90;;;;;;5051679;28;20060;-73
2023/01/17 12:30:17;;;;;;;5.38;1.55;;;4.50;99.90;;;;;;5051747;28;20065;-74
2023/01/17 12:32:43;;;;;;;10.50;1.65;;;4.10;99.90;;;;;;5050553;28;20049;-74
2023/01/17 12:35:26;;;;;;;3.97;1.20;;;4.10;99.90;;;;;;5051815;28;20049;-73
2023/01/17 12:38:04;;;;;;;3.03;0.95;;;4.50;99.90;;;;;;5051765;28;20052;-73
2023/01/17 12:40:45;;;;;;;3.35;1.35;;;;;;;;;;5051540;28;20041;-72
2023/01/17 12:43:24;;;;;;;8.10;1.63;;;4.40;99.90;;;;;;5051835;28;20049;-71
2023/01/17 12:45:53;;;;;;;2.78;1.10;;;4.50;99.90;;;;;;5056186;28;20049;-71
2023/01/17 12:48:21;;;;;;;5.80;1.17;;;4.50;99.90;;;;;;5055781;28;20546;-74
2023/01/17 12:50:56;;;;;;;3.35;1.10;;;4.80;99.90;;;;;;5055462;28;20500;-73
2023/01/17 12:53:36;;;;;;;4.55;1.10;;;4.90;99.90;;;;;;5055557;28;20057;-72
2023/01/17 12:56:28;;;;;;;4.93;1.20;;;5.10;99.90;;;;;;5055768;28;20057;-72
2023/01/17 12:59:02;;;;;;;6.85;1.00;;;5.50;99.90;;;;;;5054562;28;20049;-73
2023/01/17 13:01:38;;;;;;;2.63;1.33;;;5.70;99.90;;;;;;5055292;28;20512;-71
2023/01/17 13:04:28;;;;;;;3.22;1.02;;;5.60;99.90;;;;;;5055495;28;20118;-72
2023/01/17 13:07:18;;;;;;;3.78;1.02;;;5.40;99.90;;;;;;5055431;28;20040;-75
2023/01/17 13:10:13;;;;;;;7.75;1.05;;;5.90;99.90;;;;;;5055008;28;20085;-72
2023/01/17 13:12:39;;;;;;;7.47;1.00;;;5.60;99.90;;;;;;5052215;28;20573;-75
2023/01/17 13:15:18;;;;;;;2.72;0.95;;;5.10;99.90;;;;;;5054077;28;20436;-74
2023/01/17 13:17:50;;;;;;;4.03;1.00;;;4.90;99.90;;;;;;5055193;28;20114;-75
2023/01/17 13:20:22;;;;;;;5.38;1.10;;;5.20;99.90;;;;;;5054905;28;20507;-72
2023/01/17 13:22:50;;;;;;;4.93;1.00;;;4.90;99.90;;;;;;5054859;28;20048;-73
2023/01/17 13:25:34;;;;;;;2.97;1.00;;;;;;;;;;5055085;28;20049;-71
2023/01/17 13:28:26;;;;;;;5.45;1.17;;;4.60;99.90;;;;;;5054567;28;20133;-74
2023/01/17 13:30:52;;;;;;;1.80;1.00;;;4.90;99.90;;;;;;5054922;28;20052;-76
2023/01/17 13:33:33;;;;;;;;;;;5.10;99.90;;;;;;5054148;28;20052;-75
2023/01/17 13:36:19;;;;;;;5.95;1.38;;;5.50;99.90;;;;;;5070477;28;19921;-74
2023/01/17 13:39:15;;;;;;;3.60;1.20;;;5.80;99.90;;;;;;5054205;28;20132;-75
2023/01/17 13:41:49;;;;;;;6.88;1.13;;;5.80;99.90;;;;;;5053510;28;20122;-74
2023/01/17 13:44:20;;;;;;;5.00;1.05;;;5.90;99.90;;;;;;5054763;28;20084;-75
2023/01/17 13:47:00;;;;;;;4.50;0.95;;;;;;;;;;5054701;28;20444;-75
2023/01/17 13:49:29;;;;;;;7.00;1.30;;;5.80;99.90;;;;;;5053302;28;20049;-75
2023/01/17 13:52:11;;;;;;;5.78;1.30;;;5.30;99.90;;;;;;5054298;28;20052;-72
2023/01/17 13:54:50;;;;;;;3.10;0.90;;;;;;;;;;5054644;28;20052;-73
2023/01/17 13:57:44;;;;;;;2.38;0.93;;;4.70;99.90;;;;;;5053937;28;20076;-76
2023/01/17 14:00:23;;;;;;;2.83;0.90;;;;;;;;;;5054363;28;20049;-75
2023/01/17 14:02:50;;;;;;;1.85;0.73;;;4.50;99.90;;;;;;5054399;28;20041;-74
2023/01/17 14:05:20;;;;;;;3.17;0.93;;;4.60;99.90;;;;;;5053251;28;20405;-75
2023/01/17 14:07:54;;;;;;;6.20;1.33;;;4.50;99.90;;;;;;5054010;28;20557;-74
2023/01/17 14:10:23;;;;;;;2.13;1.35;;;4.20;99.90;;;;;;5054158;28;20047;-74
2023/01/17 14:12:49;;;;;;;3.55;1.00;;;4.30;99.90;;;;;;5054099;28;20041;-75
2023/01/17 14:15:27;;;;;;;3.20;1.05;;;4.00;99.90;;;;;;5053104;28;20393;-74
2023/01/17 14:18:03;;;;;;;4.10;1.33;;;4.10;99.90;;;;;;5054100;28;20043;-75
2023/01/17 14:20:36;;;;;;;3.40;0.90;;;;;;;;;;5053910;28;20037;-75
2023/01/17 14:23:19;;;;;;;1.80;0.80;;;3.80;99.90;;;;;;5053977;28;20065;-74
2023/01/17 14:25:45;;;;;;;5.13;1.08;;;3.80;99.90;;;;;;5053985;28;20398;-75
2023/01/17 14:28:28;;;;;;;1.98;0.88;;;;;;;;;;5052245;28;20057;-72
2023/01/17 14:30:55;;;;;;;2.97;0.90;;;3.80;99.90;;;;;;5053938;28;20053;-74
2023/01/17 14:33:28;;;;;;;7.22;1.85;;;3.90;99.90;;;;;;5053806;28;20106;-73
2023/01/17 14:36:00;;;;;;;3.53;1.52;;;;;;;;;;5053722;28;20052;-74
2023/01/17 14:38:27;;;;;;;5.18;1.00;;;;;;;;;;5069685;28;20517;-72
2023/01/17 14:41:01;;;;;;;5.10;2.15;;;3.80;99.90;;;;;;5053787;28;20052;-77
2023/01/17 14:43:31;;;;;;;5.78;1.08;;;3.80;99.90;;;;;;5053691;28;20106;-75
2023/01/17 14:46:22;;;;;;;10.70;1.45;;;3.70;99.90;;;;;;5052484;28;20528;-74
2023/01/17 14:48:50;;;;;;;1.45;0.68;;;3.80;99.90;;;;;;5063760;28;20135;-76
2023/01/17 14:51:21;;;;;;;5.07;1.40;;;3.70;99.90;;;;;;5052847;28;20528;-74
2023/01/17 14:54:06;;;;;;;3.53;1.02;;;3.60;99.90;;;;;;5053356;28;20052;-75
2023/01/17 14:56:32;;;;;;;2.05;1.10;;;3.80;99.90;;;;;;5053449;28;20041;-75
2023/01/17 14:59:13;;;;;;;3.40;1.60;;;;;;;;;;5053334;28;20089;-77
2023/01/17 15:01:40;;;;;;;4.15;1.08;;;;;;;;;;5053246;28;20144;-76
2023/01/17 15:04:06;;;;;;;4.60;1.00;;;3.50;99.90;;;;;;5068559;28;20386;-75
2023/01/17 15:06:39;;;;;;;3.30;0.90;;;3.90;99.90;;;;;;5051833;28;20049;-74
2023/01/17 15:09:09;;;;;;;3.58;1.38;;;;;;;;;;5052228;28;20474;-75
2023/01/17 15:11:35;;;;;;;3.95;1.90;;;3.50;99.90;;;;;;5053092;28;20095;-75
2023/01/17 15:14:04;;;;;;;;;;;3.30;99.90;;;;;;5052514;28;20088;-74